• Join FlightAware (Why Join?)
  • Login
  • US Flag 
04:43PM EDT


 

Airport Tracker/Info


-or-


 

Live Flight TrackerFlight Track Log ✈ N627BT ✈ 21-Aug-2013 ✈ KHGR - KPTK

Flight Track Log - Related Links

Times and Time Zones

All times are in EDT time to prevent confusion due to time zone crossing. See the N627BT flight status page for this flight to view local times or setup timezone preferences in your user account.

Time Position Orientation Groundspeed Altitude Reporting Facility
EDT Latitude Longitude Course Direction KTS MPH feet Rate Location/Type
05:11PM 39.8625 -77.9937 311° West  Level FlightAware Approximate
05:12PM 39.6981 -77.7786 311° West 156 180 1,100  Level Washington Center
05:13PM 39.6911 -77.8217 258° West 156 180 1,500 360 Climbing Washington Center
05:14PM 39.6817 -77.8672 255° West 133 153 1,900 360 Climbing Washington Center
05:15PM 39.6725 -77.9128 255° West 128 147 2,300 420 Climbing Washington Center
05:16PM 39.6761 -77.9533 277° West 128 147 2,800 420 Climbing Washington Center
05:17PM 39.6981 -77.9917 307° West 120 138 3,200 420 Climbing Washington Center
05:18PM 39.7203 -78.0331 305° West 126 145 3,700 420 Climbing Washington Center
05:19PM 39.7606 -78.0931 311° West 131 151 4,400 420 Climbing Cleveland Center
05:20PM 39.7844 -78.1300 310° West 131 151 4,900 480 Climbing Cleveland Center
05:21PM 39.8061 -78.1697 305° West 131 151 5,400 420 Climbing Cleveland Center
05:22PM 39.8297 -78.2094 308° West 131 151 5,800 360 Climbing Cleveland Center
05:23PM 39.8514 -78.2467 307° West 131 151 6,200 420 Climbing Cleveland Center
05:24PM 39.8711 -78.2947 298° West 137 158 6,700 420 Climbing Cleveland Center
05:25PM 39.8908 -78.3344 303° West 137 158 7,100 360 Climbing Cleveland Center
05:26PM 39.9183 -78.3633 321° Northwest 132 152 7,500 420 Climbing Cleveland Center
05:27PM 39.9481 -78.3950 321° Northwest 132 152 8,000 420 Climbing Cleveland Center
05:28PM 39.9778 -78.4239 323° Northwest 132 152 8,400 360 Climbing Cleveland Center
05:29PM 40.0097 -78.4525 326° Northwest 137 158 8,800 420 Climbing Cleveland Center
05:30PM 40.0417 -78.4869 320° Northwest 137 158 9,300 420 Climbing Cleveland Center
05:31PM 40.0672 -78.5158 319° Northwest 132 152 9,700 360 Climbing Cleveland Center
05:32PM 40.0989 -78.5475 323° Northwest 137 158 10,100 360 Climbing Cleveland Center
05:33PM 40.1289 -78.5792 321° Northwest 137 158 10,500 360 Climbing Cleveland Center
05:34PM 40.1606 -78.6108 323° Northwest 137 158 10,900 300 Climbing Cleveland Center
05:35PM 40.1925 -78.6425 323° Northwest 137 158 11,200 300 Climbing Cleveland Center
05:36PM 40.2283 -78.6714 328° Northwest 137 158 11,600 300 Climbing Cleveland Center
05:37PM 40.2622 -78.6975 330° Northwest 142 163 11,900 300 Climbing Cleveland Center
05:38PM 40.2981 -78.7292 326° Northwest 147 169 12,200 300 Climbing Cleveland Center
05:39PM 40.3319 -78.7636 322° Northwest 147 169 12,600 300 Climbing Cleveland Center
05:40PM 40.3639 -78.7983 320° Northwest 147 169 12,900 300 Climbing Cleveland Center
05:41PM 40.3833 -78.8442 299° West 147 169 13,300 300 Climbing Cleveland Center
05:42PM 40.4111 -78.8869 310° West 147 169 13,600 300 Climbing Cleveland Center
05:43PM 40.4367 -78.9328 306° West 152 175 13,900 120 Climbing Cleveland Center
05:44PM 40.4625 -78.9811 305° West 152 175 13,900  Level Cleveland Center
05:45PM 40.4881 -79.0269 306° West 152 175 13,900  Level Cleveland Center
05:46PM 40.5117 -79.0756 303° West 158 182 13,900  Level Cleveland Center
05:47PM 40.5353 -79.1214 304° West 158 182 13,900 -60 Level Cleveland Center
05:48PM 40.5628 -79.1672 308° West 158 182 13,800  Descending Cleveland Center
05:49PM 40.5842 -79.2133 301° West 158 182 13,900  Climbing Cleveland Center
05:50PM 40.6119 -79.2594 308° West 158 182 13,900  Level Cleveland Center
05:51PM 40.6353 -79.3053 304° West 158 182 13,900 -60 Level Cleveland Center
05:52PM 40.6589 -79.3486 306° West 153 176 13,800  Descending Cleveland Center
05:53PM 40.6800 -79.3922 303° West 148 170 13,900  Climbing Cleveland Center
05:54PM 40.7056 -79.4356 308° West 148 170 13,900  Level Cleveland Center
05:55PM 40.7269 -79.4817 301° West 148 170 13,900  Level Cleveland Center
05:56PM 40.7503 -79.5253 305° West 148 170 13,900  Level Cleveland Center
05:57PM 40.7756 -79.5714 306° West 148 170 13,900  Level Cleveland Center
05:58PM 40.7989 -79.6150 305° West 148 170 13,900 -60 Level Cleveland Center
05:59PM 40.8222 -79.6586 305° West 148 170 13,800  Descending Cleveland Center
06:00PM 40.8456 -79.7047 304° West 148 170 13,900  Climbing Cleveland Center
06:01PM 40.8689 -79.7483 305° West 148 170 13,900  Level Cleveland Center
06:02PM 40.8919 -79.7947 303° West 148 170 13,900  Level Cleveland Center
06:03PM 40.9153 -79.8414 304° West 148 170 13,900  Level Cleveland Center
06:04PM 40.9386 -79.8878 304° West 148 170 13,900  Level Cleveland Center
06:05PM 40.9639 -79.9342 306° West 148 170 13,900  Level Cleveland Center
06:06PM 40.9892 -79.9808 306° West 148 170 13,900  Level Cleveland Center
06:07PM 41.0122 -80.0272 303° West 148 170 13,900  Level Cleveland Center
06:08PM 41.0375 -80.0739 306° West 148 170 13,900  Level Cleveland Center
06:09PM 41.0586 -80.1206 301° West 148 170 13,900  Level Cleveland Center
06:10PM 41.0817 -80.1644 305° West 148 170 13,900  Level Cleveland Center
06:11PM 41.1067 -80.2083 304° West 148 170 13,900  Level Cleveland Center
06:12PM 41.1069 -80.2144 304° West  Level FlightAware Approximate
06:12PM 41.1278 -80.2550 301° West 153 176 13,900  Level Cleveland Center
06:13PM 41.1508 -80.2992 305° West 148 170 13,900  Level Cleveland Center
06:14PM 41.1758 -80.3458 305° West 148 170 13,900  Level Cleveland Center
06:15PM 41.1989 -80.3928 303° West 153 176 13,900  Level Cleveland Center
06:17PM 41.2243 -80.4437 304° West  Level FlightAware Approximate
06:18PM 41.2700 -80.5361 304° West 148 170 13,900  Level Cleveland Center
06:19PM 41.2931 -80.5831 303° West 153 176 13,900  Level Cleveland Center
06:20PM 41.3181 -80.6275 307° West 153 176 13,900  Level Cleveland Center
06:21PM 41.3386 -80.6744 300° West 147 169 13,900  Level Cleveland Center
06:22PM 41.3658 -80.7214 308° West 153 176 13,900  Level Cleveland Center
06:23PM 41.3886 -80.7686 303° West 153 176 13,900  Level Cleveland Center
06:24PM 41.3811 -80.7592 304° West  Level FlightAware Approximate
06:24PM 41.4114 -80.8156 303° West 153 176 13,900  Level Cleveland Center
06:25PM 41.4344 -80.8628 303° West 148 170 13,900  Level Cleveland Center
06:26PM 41.4592 -80.9072 307° West 148 170 13,900  Level Cleveland Center
06:27PM 41.4800 -80.9489 304° West 148 170 13,900  Level Cleveland Center
06:28PM 41.5028 -80.9961 303° West 153 176 13,900  Level Cleveland Center
06:29PM 41.5256 -81.0436 303° West 153 176 13,900  Level Cleveland Center
06:30PM 41.5503 -81.0908 305° West 153 176 13,900  Level Cleveland Center
06:31PM 41.5731 -81.1383 303° West 153 176 13,900  Level Cleveland Center
06:32PM 41.5978 -81.1883 303° West 153 176 13,900  Level Cleveland Center
06:33PM 41.6203 -81.2386 301° West 153 176 13,900  Level Cleveland Center
06:34PM 41.6472 -81.2861 307° West 153 176 13,900  Level Cleveland Center
06:35PM 41.6739 -81.3419 303° West 153 176 13,900  Level Cleveland Center
06:36PM 41.6967 -81.3925 301° West 153 176 13,900  Level Cleveland Center
06:37PM 41.7233 -81.4400 307° West 158 182 13,900  Level Cleveland Center
06:38PM 41.7458 -81.4903 301° West 163 188 13,900  Level Cleveland Center
06:39PM 41.7725 -81.5408 305° West 163 188 13,900  Level Cleveland Center
06:40PM 41.7950 -81.5914 301° West 163 188 13,900  Level Cleveland Center
06:41PM 41.8194 -81.6419 303° West 163 188 13,900  Level Cleveland Center
06:42PM 41.8442 -81.6897 305° West 163 188 13,900  Level Cleveland Center
06:43PM 41.8708 -81.7431 304° West 163 188 13,900  Level Cleveland Center
06:44PM 41.8953 -81.7939 303° West 163 188 13,900 -120 Level Cleveland Center
06:45PM 41.9175 -81.8389 304° West 163 188 13,700 -300 Descending Cleveland Center
06:46PM 41.9419 -81.8897 303° West 168 193 13,300 -480 Descending Cleveland Center
06:47PM 41.9686 -81.9433 304° West 168 193 12,800 -600 Descending Cleveland Center
06:48PM 41.9931 -81.9969 302° West 163 188 12,200 -600 Descending Cleveland Center
06:49PM 42.0172 -82.0447 304° West 163 188 11,600 -600 Descending Cleveland Center
06:50PM 42.0397 -82.0928 302° West 163 188 11,000 -660 Descending Cleveland Center
06:51PM 42.0639 -82.1439 303° West 163 188 10,300 -600 Descending Cleveland Center
06:52PM 42.0842 -82.1919 300° West 163 188 9,800 -600 Descending Cleveland Center
06:53PM 42.1086 -82.2372 306° West 163 188 9,200 -600 Descending Cleveland Center
06:54PM 42.1308 -82.2856 302° West 158 182 8,600 -600 Descending Cleveland Center
06:55PM 42.1531 -82.3308 304° West 158 182 8,000 -480 Descending Cleveland Center
06:56PM 42.1672 -82.3536 310° West 146 168 7,900 -120 Descending Cleveland Center
06:56PM 42.1731 -82.3761 289° West 153 176 7,900  Level Cleveland Center
06:57PM 42.1894 -82.4019 311° West 142 163 7,900  Level Cleveland Center
06:58PM 42.2094 -82.4503 299° West 143 165 7,900 -120 Level Cleveland Center
06:59PM 42.2317 -82.4900 307° West 145 167 7,700 -240 Descending Cleveland Center
06:59PM 42.2397 -82.5128 296° West 148 170 7,600 -360 Descending Cleveland Center
07:00PM 42.2597 -82.5556 302° West 148 170 7,200 -420 Descending Cleveland Center
07:01PM 42.2819 -82.6039 302° West 148 170 6,800 -540 Descending Cleveland Center
07:02PM 42.2981 -82.6297 310° West 144 166 6,400 -540 Descending Cleveland Center
07:02PM 42.3019 -82.6467 287° West 148 170 6,300 -480 Descending Cleveland Center
07:03PM 42.3203 -82.6808 306° West 141 162 5,900 -540 Descending Cleveland Center
07:04PM 42.3381 -82.7208 301° West 142 163 5,500 -480 Descending Cleveland Center
07:05PM 42.3625 -82.7639 308° West 140 161 5,000 -540 Descending Cleveland Center
07:06PM 42.3972 -82.8017 321° Northwest 152 175 4,500 -600 Descending Cleveland Center
07:07PM 42.4278 -82.8364 320° Northwest 151 174 3,900 -360 Descending Cleveland Center
07:08PM 42.4647 -82.8603 335° Northwest 142 163 3,800 -60 Descending Cleveland Center
07:09PM 42.4975 -82.8839 332° Northwest 134 154 3,800  Level Cleveland Center
07:10PM 42.5306 -82.9078 332° Northwest 137 158 3,800  Level Cleveland Center
07:11PM 42.5697 -82.9317 336° Northwest 142 163 3,800  Level Cleveland Center
07:12PM 42.6086 -82.9558 335° Northwest 142 163 3,800 -120 Level Cleveland Center
07:13PM 42.6183 -82.9956 288° West 132 152 3,600 -420 Descending Cleveland Center
07:14PM 42.6256 -83.0467 281° West 136 157 3,000 -420 Descending Cleveland Center
07:15PM 42.6308 -83.0947 279° West 133 153 2,800 -120 Descending Cleveland Center
07:16PM 42.6400 -83.1461 284° West 125 144 2,800  Level Cleveland Center
07:17PM 42.6494 -83.1944 285° West 126 145 2,800 -60 Level Cleveland Center
07:18PM 42.6567 -83.2400 282° West 127 146 2,700 -300 Descending Cleveland Center
07:19PM 42.6681 -83.2883 288° West 134 154 2,200 -540 Descending Cleveland Center
07:20PM 42.6692 -83.3308 272° West 105 121 1,700 -420 Descending Cleveland Center
07:21PM 42.6661 -83.3675 264° West 92 106 1,400 -300 Descending Cleveland Center
07:23PM 42.6500 -83.4167 277° West  Level FlightAware Approximate